sensor_id;sensor_type;location;lat;lon;timestamp;P1;P2;P0
74432;PMS7003;62865;53.146;23.172;2022-11-18T00:24:37;8;8;4
74432;PMS7003;62865;53.146;23.172;2022-11-18T00:29:21;16;13;6
74432;PMS7003;62865;53.146;23.172;2022-11-18T00:34:11;12.3;11.7;6.7
74432;PMS7003;62865;53.146;23.172;2022-11-18T00:39:03;12.3;11.7;6.7
74432;PMS7003;62865;53.146;23.172;2022-11-18T00:44:23;11;8;4
74432;PMS7003;62865;53.146;23.172;2022-11-18T00:49:35;16;12;6
74432;PMS7003;62865;53.146;23.172;2022-11-18T00:54:21;11;11;6
74432;PMS7003;62865;53.146;23.172;2022-11-18T00:59:43;11.3;8.8;5.5
74432;PMS7003;62865;53.146;23.172;2022-11-18T01:04:09;9;8;4
74432;PMS7003;62865;53.146;23.172;2022-11-18T01:09:35;9;6.7;5
74432;PMS7003;62865;53.146;23.172;2022-11-18T01:14:23;8;6.5;4
74432;PMS7003;62865;53.146;23.172;2022-11-18T01:19:33;12;8;4
74432;PMS7003;62865;53.146;23.172;2022-11-18T01:24:49;10.7;8.3;5
74432;PMS7003;62865;53.146;23.172;2022-11-18T01:29:03;13;9;6.3
74432;PMS7003;62865;53.146;23.172;2022-11-18T01:34:27;13;10;6
74432;PMS7003;62865;53.146;23.172;2022-11-18T01:39:41;13;10;6
74432;PMS7003;62865;53.146;23.172;2022-11-18T01:45:45;10.7;7;5.3
74432;PMS7003;62865;53.146;23.172;2022-11-18T01:49:27;8.4;6.4;4
74432;PMS7003;62865;53.146;23.172;2022-11-18T01:54:16;9.8;7.5;5
74432;PMS7003;62865;53.146;23.172;2022-11-18T02:09:15;9.8;7.5;5
74432;PMS7003;62865;53.146;23.172;2022-11-18T02:14:53;4;4;2
74432;PMS7003;62865;53.146;23.172;2022-11-18T02:19:21;8;7;4
74432;PMS7003;62865;53.146;23.172;2022-11-18T02:24:24;7.7;7;4
74432;PMS7003;62865;53.146;23.172;2022-11-18T02:29:27;7.7;7;4
74432;PMS7003;62865;53.146;23.172;2022-11-18T02:34:38;3.5;3;2
74432;PMS7003;62865;53.146;23.172;2022-11-18T02:39:06;6;5.5;2.5
74432;PMS7003;62865;53.146;23.172;2022-11-18T02:44:03;6;4.7;3.7
74432;PMS7003;62865;53.146;23.172;2022-11-18T02:49:04;2;2;1
74432;PMS7003;62865;53.146;23.172;2022-11-18T02:54:41;2;2;1
74432;PMS7003;62865;53.146;23.172;2022-11-18T02:59:37;6.3;5;2.8
74432;PMS7003;62865;53.146;23.172;2022-11-18T03:04:41;7.5;5.5;3.5
74432;PMS7003;62865;53.146;23.172;2022-11-18T03:09:26;8.5;6;4
74432;PMS7003;62865;53.146;23.172;2022-11-18T03:14:17;8.5;6;4
74432;PMS7003;62865;53.146;23.172;2022-11-18T03:19:56;7;4.8;3
74432;PMS7003;62865;53.146;23.172;2022-11-18T03:24:26;6;5;2
74432;PMS7003;62865;53.146;23.172;2022-11-18T03:29:52;5;4.5;1.5
74432;PMS7003;62865;53.146;23.172;2022-11-18T03:34:04;5;4.5;1.5
74432;PMS7003;62865;53.146;23.172;2022-11-18T03:39:17;8;4;2
74432;PMS7003;62865;53.146;23.172;2022-11-18T03:54:53;8;4;2
74432;PMS7003;62865;53.146;23.172;2022-11-18T03:59:16;7;7;3
74432;PMS7003;62865;53.146;23.172;2022-11-18T04:04:15;15;13;6
74432;PMS7003;62865;53.146;23.172;2022-11-18T04:09:41;15;13;6
74432;PMS7003;62865;53.146;23.172;2022-11-18T04:14:39;6.5;5;4.5
74432;PMS7003;62865;53.146;23.172;2022-11-18T04:19:15;7.7;5;3.3
74432;PMS7003;62865;53.146;23.172;2022-11-18T04:24:25;10.3;7;4.5
74432;PMS7003;62865;53.146;23.172;2022-11-18T04:29:15;9;8;6
74432;PMS7003;62865;53.146;23.172;2022-11-18T04:34:53;7;7;4
74432;PMS7003;62865;53.146;23.172;2022-11-18T04:39:13;13;12;9
74432;PMS7003;62865;53.146;23.172;2022-11-18T04:44:51;6;6;4
74432;PMS7003;62865;53.146;23.172;2022-11-18T04:49:03;11;11;8
74432;PMS7003;62865;53.146;23.172;2022-11-18T04:54:25;9;7;3
74432;PMS7003;62865;53.146;23.172;2022-11-18T04:59:13;16;10;5
74432;PMS7003;62865;53.146;23.172;2022-11-18T05:04:53;12.5;12.5;8.5
74432;PMS7003;62865;53.146;23.172;2022-11-18T05:09:51;15.5;13.5;8.5
74432;PMS7003;62865;53.146;23.172;2022-11-18T05:14:03;13.3;9.5;5.8
74432;PMS7003;62865;53.146;23.172;2022-11-18T05:19:15;11;9;7
74432;PMS7003;62865;53.146;23.172;2022-11-18T05:24:41;11;9;7
74432;PMS7003;62865;53.146;23.172;2022-11-18T05:29:39;11;9;7
74432;PMS7003;62865;53.146;23.172;2022-11-18T05:34:25;11;9;7
74432;PMS7003;62865;53.146;23.172;2022-11-18T05:39:41;12;10;6.5
74432;PMS7003;62865;53.146;23.172;2022-11-18T05:44:03;14.5;11;7
74432;PMS7003;62865;53.146;23.172;2022-11-18T05:49:53;14.5;11;7
74432;PMS7003;62865;53.146;23.172;2022-11-18T05:54:15;10.3;8.3;5.3
74432;PMS7003;62865;53.146;23.172;2022-11-18T05:59:51;12;10;6
74432;PMS7003;62865;53.146;23.172;2022-11-18T06:04:40;12;10;6
74432;PMS7003;62865;53.146;23.172;2022-11-18T06:09:15;11;7;5
74432;PMS7003;62865;53.146;23.172;2022-11-18T06:14:26;17;12;8
74432;PMS7003;62865;53.146;23.172;2022-11-18T06:19:37;17;12;8
74432;PMS7003;62865;53.146;23.172;2022-11-18T06:24:39;14;11;7
74432;PMS7003;62865;53.146;23.172;2022-11-18T06:29:49;16.5;13;6
74432;PMS7003;62865;53.146;23.172;2022-11-18T06:39:51;15;11;6
74432;PMS7003;62865;53.146;23.172;2022-11-18T06:44:25;15;11;6
74432;PMS7003;62865;53.146;23.172;2022-11-18T06:59:15;15;11;6
74432;PMS7003;62865;53.146;23.172;2022-11-18T07:04:51;8;8;5
74432;PMS7003;62865;53.146;23.172;2022-11-18T07:09:47;12.7;10;6
74432;PMS7003;62865;53.146;23.172;2022-11-18T07:14:53;11;9;5
74432;PMS7003;62865;53.146;23.172;2022-11-18T07:19:15;12;11;8
74432;PMS7003;62865;53.146;23.172;2022-11-18T07:24:15;11;11;6
74432;PMS7003;62865;53.146;23.172;2022-11-18T07:29:27;12;9;6.5
74432;PMS7003;62865;53.146;23.172;2022-11-18T07:34:37;10;9.5;6.5
74432;PMS7003;62865;53.146;23.172;2022-11-18T07:39:41;10;9.5;6.5
74432;PMS7003;62865;53.146;23.172;2022-11-18T07:49:04;10;9.5;6.5
74432;PMS7003;62865;53.146;23.172;2022-11-18T07:54:53;10;8;4.5
74432;PMS7003;62865;53.146;23.172;2022-11-18T08:04:25;8.5;7;5
74432;PMS7003;62865;53.146;23.172;2022-11-18T08:09:05;9;9;6
74432;PMS7003;62865;53.146;23.172;2022-11-18T08:14:15;15.5;14.5;9
74432;PMS7003;62865;53.146;23.172;2022-11-18T08:19:51;15.5;14.5;9
74432;PMS7003;62865;53.146;23.172;2022-11-18T08:24:23;14;11;9
74432;PMS7003;62865;53.146;23.172;2022-11-18T08:29:53;10.7;10.3;7
74432;PMS7003;62865;53.146;23.172;2022-11-18T08:34:29;19;17;11
74432;PMS7003;62865;53.146;23.172;2022-11-18T08:39:15;19;17;11
74432;PMS7003;62865;53.146;23.172;2022-11-18T08:44:27;18.5;13.5;9.5
74432;PMS7003;62865;53.146;23.172;2022-11-18T08:49:37;12;12;7.5
74432;PMS7003;62865;53.146;23.172;2022-11-18T08:54:29;13;12;6.5
74432;PMS7003;62865;53.146;23.172;2022-11-18T08:59:53;11.5;11;7.5
74432;PMS7003;62865;53.146;23.172;2022-11-18T09:04:03;11.5;11;7.5
74432;PMS7003;62865;53.146;23.172;2022-11-18T09:09:53;13;12;8
74432;PMS7003;62865;53.146;23.172;2022-11-18T09:14:53;13;12;8
74432;PMS7003;62865;53.146;23.172;2022-11-18T09:19:03;14;14;9
74432;PMS7003;62865;53.146;23.172;2022-11-18T09:24:41;11;9;7
74432;PMS7003;62865;53.146;23.172;2022-11-18T09:34:53;8;8;5
74432;PMS7003;62865;53.146;23.172;2022-11-18T09:39:25;9;7;3
74432;PMS7003;62865;53.146;23.172;2022-11-18T09:49:26;9;7;3
74432;PMS7003;62865;53.146;23.172;2022-11-18T09:54:26;10.5;9.5;6
74432;PMS7003;62865;53.146;23.172;2022-11-18T09:59:29;7.5;7;5
74432;PMS7003;62865;53.146;23.172;2022-11-18T10:04:39;7;6;5
74432;PMS7003;62865;53.146;23.172;2022-11-18T10:09:19;10;6;3
74432;PMS7003;62865;53.146;23.172;2022-11-18T10:14:43;11;7;5
74432;PMS7003;62865;53.146;23.172;2022-11-18T10:24:54;11;7;5
74432;PMS7003;62865;53.146;23.172;2022-11-18T10:29:53;9;8;5
74432;PMS7003;62865;53.146;23.172;2022-11-18T10:34:44;10;10;6
74432;PMS7003;62865;53.146;23.172;2022-11-18T10:39:48;9.5;7.5;4.5
74432;PMS7003;62865;53.146;23.172;2022-11-18T10:44:32;9.5;7.5;4.5
74432;PMS7003;62865;53.146;23.172;2022-11-18T10:49:54;4;4;4
74432;PMS7003;62865;53.146;23.172;2022-11-18T10:54:25;10;10;7
74432;PMS7003;62865;53.146;23.172;2022-11-18T10:59:53;14;14;7
74432;PMS7003;62865;53.146;23.172;2022-11-18T11:04:15;7.5;7.5;5
74432;PMS7003;62865;53.146;23.172;2022-11-18T11:09:21;7.5;7.5;5
74432;PMS7003;62865;53.146;23.172;2022-11-18T11:14:29;8;7;5
74432;PMS7003;62865;53.146;23.172;2022-11-18T11:19:41;8;7;5
74432;PMS7003;62865;53.146;23.172;2022-11-18T11:24:07;10;9;7
74432;PMS7003;62865;53.146;23.172;2022-11-18T11:29:20;10;9;7
74432;PMS7003;62865;53.146;23.172;2022-11-18T11:34:16;13.7;11.7;7
74432;PMS7003;62865;53.146;23.172;2022-11-18T11:40:00;13.7;11.7;7
74432;PMS7003;62865;53.146;23.172;2022-11-18T11:49:43;17;13;9
74432;PMS7003;62865;53.146;23.172;2022-11-18T11:54:37;14.7;11.3;8.3
74432;PMS7003;62865;53.146;23.172;2022-11-18T11:59:42;16.5;12.5;7.5
74432;PMS7003;62865;53.146;23.172;2022-11-18T12:04:54;16.5;12.5;7.5
74432;PMS7003;62865;53.146;23.172;2022-11-18T12:09:37;14.7;11.3;6.3
74432;PMS7003;62865;53.146;23.172;2022-11-18T12:14:54;12.5;11.5;7
74432;PMS7003;62865;53.146;23.172;2022-11-18T12:19:27;14;11;6
74432;PMS7003;62865;53.146;23.172;2022-11-18T12:24:22;11;9.5;5.5
74432;PMS7003;62865;53.146;23.172;2022-11-18T12:29:19;17;10.5;6.5
74432;PMS7003;62865;53.146;23.172;2022-11-18T12:34:37;10;6;4
74432;PMS7003;62865;53.146;23.172;2022-11-18T12:39:45;10;6;4
74432;PMS7003;62865;53.146;23.172;2022-11-18T12:44:55;16;11;7
74432;PMS7003;62865;53.146;23.172;2022-11-18T12:49:59;16;11;7
74432;PMS7003;62865;53.146;23.172;2022-11-18T12:54:53;13;10;7
74432;PMS7003;62865;53.146;23.172;2022-11-18T12:59:49;15;13;9
74432;PMS7003;62865;53.146;23.172;2022-11-18T13:04:39;14;10;7
74432;PMS7003;62865;53.146;23.172;2022-11-18T13:09:41;14;10;7
74432;PMS7003;62865;53.146;23.172;2022-11-18T13:14:04;10.5;9.5;6.5
74432;PMS7003;62865;53.146;23.172;2022-11-18T13:19:54;22;16;11
74432;PMS7003;62865;53.146;23.172;2022-11-18T13:29:52;22;16;11
74432;PMS7003;62865;53.146;23.172;2022-11-18T13:34:28;19;19;10
74432;PMS7003;62865;53.146;23.172;2022-11-18T13:44:28;19;19;10
74432;PMS7003;62865;53.146;23.172;2022-11-18T13:49:41;19;15;9
74432;PMS7003;62865;53.146;23.172;2022-11-18T13:54:23;19;15;9
74432;PMS7003;62865;53.146;23.172;2022-11-18T13:59:37;14.5;12;8
74432;PMS7003;62865;53.146;23.172;2022-11-18T14:04:17;14.5;11.5;7.5
74432;PMS7003;62865;53.146;23.172;2022-11-18T14:09:54;17;12;9
74432;PMS7003;62865;53.146;23.172;2022-11-18T14:19:39;17;12;9
74432;PMS7003;62865;53.146;23.172;2022-11-18T14:24:27;13;12;7
74432;PMS7003;62865;53.146;23.172;2022-11-18T14:29:14;13;12;7
74432;PMS7003;62865;53.146;23.172;2022-11-18T14:34:25;13;9;6
74432;PMS7003;62865;53.146;23.172;2022-11-18T14:39:35;16.5;14.5;9.5
74432;PMS7003;62865;53.146;23.172;2022-11-18T14:44:26;15;11;7
74432;PMS7003;62865;53.146;23.172;2022-11-18T14:54:03;21;17;11
74432;PMS7003;62865;53.146;23.172;2022-11-18T14:59:41;21;17;11
74432;PMS7003;62865;53.146;23.172;2022-11-18T15:04:27;9;9;6
74432;PMS7003;62865;53.146;23.172;2022-11-18T15:09:53;12;12;10
74432;PMS7003;62865;53.146;23.172;2022-11-18T15:14:53;20.5;18;11.5
74432;PMS7003;62865;53.146;23.172;2022-11-18T15:19:15;22.3;17.7;11.7
74432;PMS7003;62865;53.146;23.172;2022-11-18T15:24:53;21;20;10
74432;PMS7003;62865;53.146;23.172;2022-11-18T15:29:43;20;17;12
74432;PMS7003;62865;53.146;23.172;2022-11-18T15:34:39;21.5;18;9.5
74432;PMS7003;62865;53.146;23.172;2022-11-18T15:39:05;21.5;18;9.5
74432;PMS7003;62865;53.146;23.172;2022-11-18T15:44:21;22;15;9
74432;PMS7003;62865;53.146;23.172;2022-11-18T15:49:29;29;23;13
74432;PMS7003;62865;53.146;23.172;2022-11-18T15:54:39;20.8;16.3;10.5
74432;PMS7003;62865;53.146;23.172;2022-11-18T15:59:04;20.8;16.3;10.5
74432;PMS7003;62865;53.146;23.172;2022-11-18T16:09:29;20.8;16.3;10.5
74432;PMS7003;62865;53.146;23.172;2022-11-18T16:14:41;21;17.7;11.3
74432;PMS7003;62865;53.146;23.172;2022-11-18T16:19:29;19.5;15.5;10.5
74432;PMS7003;62865;53.146;23.172;2022-11-18T16:24:57;25;19;11
74432;PMS7003;62865;53.146;23.172;2022-11-18T16:29:55;25;19;11
74432;PMS7003;62865;53.146;23.172;2022-11-18T16:34:29;20.7;18;11
74432;PMS7003;62865;53.146;23.172;2022-11-18T16:39:43;17.3;16;9.3
74432;PMS7003;62865;53.146;23.172;2022-11-18T16:44:31;21.5;19.5;11
74432;PMS7003;62865;53.146;23.172;2022-11-18T16:49:57;16;14.7;10.3
74432;PMS7003;62865;53.146;23.172;2022-11-18T16:54:28;20.5;16.3;10
74432;PMS7003;62865;53.146;23.172;2022-11-18T17:09:43;25;15;11
74432;PMS7003;62865;53.146;23.172;2022-11-18T17:14:29;21;17;10.3
74432;PMS7003;62865;53.146;23.172;2022-11-18T17:19:59;21;17;10.3
74432;PMS7003;62865;53.146;23.172;2022-11-18T17:24:18;21;17;10.3
74432;PMS7003;62865;53.146;23.172;2022-11-18T17:29:45;34.5;28.8;17.8
74432;PMS7003;62865;53.146;23.172;2022-11-18T17:34:29;31.3;26.7;15
74432;PMS7003;62865;53.146;23.172;2022-11-18T17:39:57;42;34;18
74432;PMS7003;62865;53.146;23.172;2022-11-18T17:44:55;43;36.5;21.5
74432;PMS7003;62865;53.146;23.172;2022-11-18T17:49:17;43;36.5;21.5
74432;PMS7003;62865;53.146;23.172;2022-11-18T17:54:43;45;36;19.5
74432;PMS7003;62865;53.146;23.172;2022-11-18T17:59:43;45;36;19.5
74432;PMS7003;62865;53.146;23.172;2022-11-18T18:04:41;38.3;32;18
74432;PMS7003;62865;53.146;23.172;2022-11-18T18:09:31;36.3;33;20.7
74432;PMS7003;62865;53.146;23.172;2022-11-18T18:14:17;41;32;20
74432;PMS7003;62865;53.146;23.172;2022-11-18T18:19:27;35;26;14
74432;PMS7003;62865;53.146;23.172;2022-11-18T18:24:43;40;29;18
74432;PMS7003;62865;53.146;23.172;2022-11-18T18:29:27;34;28;16
74432;PMS7003;62865;53.146;23.172;2022-11-18T18:44:43;30;27;15
74432;PMS7003;62865;53.146;23.172;2022-11-18T18:49:29;30;27;15
74432;PMS7003;62865;53.146;23.172;2022-11-18T18:54:29;31.5;26;15
74432;PMS7003;62865;53.146;23.172;2022-11-18T18:59:51;29;22;14
74432;PMS7003;62865;53.146;23.172;2022-11-18T19:04:06;21;17.5;10.5
74432;PMS7003;62865;53.146;23.172;2022-11-18T19:09:15;24.3;20.3;12.3
74432;PMS7003;62865;53.146;23.172;2022-11-18T19:14:42;24.3;20.3;12.3
74432;PMS7003;62865;53.146;23.172;2022-11-18T19:19:31;17.7;13;8.7
74432;PMS7003;62865;53.146;23.172;2022-11-18T19:24:27;20;17;9
74432;PMS7003;62865;53.146;23.172;2022-11-18T19:29:05;24;23;15
74432;PMS7003;62865;53.146;23.172;2022-11-18T19:34:05;19.5;15.5;11
74432;PMS7003;62865;53.146;23.172;2022-11-18T19:39:53;17;16;10
74432;PMS7003;62865;53.146;23.172;2022-11-18T19:44:17;22.5;21.5;13
74432;PMS7003;62865;53.146;23.172;2022-11-18T19:49:55;24;22;13
74432;PMS7003;62865;53.146;23.172;2022-11-18T19:54:05;28;24;16
74432;PMS7003;62865;53.146;23.172;2022-11-18T19:59:25;28;24;16
74432;PMS7003;62865;53.146;23.172;2022-11-18T20:04:27;24.5;20;14.5
74432;PMS7003;62865;53.146;23.172;2022-11-18T20:09:43;18;14;11
74432;PMS7003;62865;53.146;23.172;2022-11-18T20:14:55;18;14;11
74432;PMS7003;62865;53.146;23.172;2022-11-18T20:19:05;31;26;15.5
74432;PMS7003;62865;53.146;23.172;2022-11-18T20:24:06;31;26;15.5
74432;PMS7003;62865;53.146;23.172;2022-11-18T20:29:39;32;28;17.5
74432;PMS7003;62865;53.146;23.172;2022-11-18T20:34:39;32;28;17.5
74432;PMS7003;62865;53.146;23.172;2022-11-18T20:39:15;25;19;12.5
74432;PMS7003;62865;53.146;23.172;2022-11-18T20:44:05;35;31;17
74432;PMS7003;62865;53.146;23.172;2022-11-18T20:49:05;44;37;22
74432;PMS7003;62865;53.146;23.172;2022-11-18T20:54:59;44;37;22
74432;PMS7003;62865;53.146;23.172;2022-11-18T20:59:39;28;23.7;14.7
74432;PMS7003;62865;53.146;23.172;2022-11-18T21:04:57;39;33;17
74432;PMS7003;62865;53.146;23.172;2022-11-18T21:09:29;27.5;23;15.5
74432;PMS7003;62865;53.146;23.172;2022-11-18T21:14:17;31.4;26;15
74432;PMS7003;62865;53.146;23.172;2022-11-18T21:19:28;29;23;14
74432;PMS7003;62865;53.146;23.172;2022-11-18T21:29:53;9;4;3
74432;PMS7003;62865;53.146;23.172;2022-11-18T21:34:18;23.5;20.5;12
74432;PMS7003;62865;53.146;23.172;2022-11-18T21:39:05;31;27;12
74432;PMS7003;62865;53.146;23.172;2022-11-18T21:44:41;31;27;12
74432;PMS7003;62865;53.146;23.172;2022-11-18T21:49:43;24;18;10
74432;PMS7003;62865;53.146;23.172;2022-11-18T21:54:41;23;19;10
74432;PMS7003;62865;53.146;23.172;2022-11-18T22:04:11;25;24;14
74432;PMS7003;62865;53.146;23.172;2022-11-18T22:09:49;21;17;13
74432;PMS7003;62865;53.146;23.172;2022-11-18T22:14:21;25;20;13
74432;PMS7003;62865;53.146;23.172;2022-11-18T22:19:49;23;19.7;12.3
74432;PMS7003;62865;53.146;23.172;2022-11-18T22:24:23;24;18;10
74432;PMS7003;62865;53.146;23.172;2022-11-18T22:39:25;18;15;10
74432;PMS7003;62865;53.146;23.172;2022-11-18T22:44:39;22.5;18;12.5
74432;PMS7003;62865;53.146;23.172;2022-11-18T22:49:15;22.5;18;12.5
74432;PMS7003;62865;53.146;23.172;2022-11-18T22:59:47;22.5;18;12.5
74432;PMS7003;62865;53.146;23.172;2022-11-18T23:04:31;27;20;13
74432;PMS7003;62865;53.146;23.172;2022-11-18T23:09:26;26.7;22.7;14.7
74432;PMS7003;62865;53.146;23.172;2022-11-18T23:14:27;26;23;13
74432;PMS7003;62865;53.146;23.172;2022-11-18T23:19:06;15;13;9
74432;PMS7003;62865;53.146;23.172;2022-11-18T23:24:51;24;18.5;10
74432;PMS7003;62865;53.146;23.172;2022-11-18T23:39:23;18.3;14.3;9.7
74432;PMS7003;62865;53.146;23.172;2022-11-18T23:44:05;21;19;12
74432;PMS7003;62865;53.146;23.172;2022-11-18T23:49:25;17.5;15.5;9
74432;PMS7003;62865;53.146;23.172;2022-11-18T23:54:39;15;13.5;10
74432;PMS7003;62865;53.146;23.172;2022-11-18T23:59:37;21;18;12
